Aviation Digital Data Service (ADDS)

Output produced by METARs form (1827 UTC 18 April 2019)
found at http://www.aviationweather.gov/metar/data/
 
Forecast for: EDDG (MUENSTER/OSNABRU, DE)
Text: TAF EDDG 181700Z 1818/1918 07010KT CAVOK
Forecast period: 1800 UTC 18 April 2019 to 1800 UTC 19 April 2019
Forecast type: FROM: standard forecast or significant change
Winds: from the ENE (70 degrees) at 12 MPH (10 knots; 5.1 m/s)
Visibility: 6 or more miles 10+ km)
Ceiling: unknown
Clouds: missing
Weather: NSW  (no significant weather)
Text: BECMG 1818/1821 07005KT
Forecast period: 1800 UTC 18 April 2019 to 0700 UTC 19 April 2019
Forecast type: BECOMING: Conditions expected to become as follows by 2100 UTC 18 April 2019
Winds: from the ENE (70 degrees) at 6 MPH (5 knots; 2.6 m/s)
Visibility: 6 or more miles 10+ km)
Ceiling: unknown
Clouds: missing
Weather: NSW  (no significant weather)
Text: BECMG 1907/1910 08013KT
Forecast period: 0700 to 1800 UTC 19 April 2019
Forecast type: BECOMING: Conditions expected to become as follows by 1000 UTC 19 April 2019
Winds: from the E (80 degrees) at 15 MPH (13 knots; 6.7 m/s)
Visibility: 6 or more miles 10+ km)
Ceiling: unknown
Clouds: missing
Weather: NSW  (no significant weather)